Time;durP1;ratioP1;P1;durP2;ratioP2;P2;SDS_P1;SDS_P2;PMS_P1;PMS_P2;Temp;Humidity;BMP_temperature;BMP_pressure;BME280_temperature;BME280_humidity;BME280_pressure;Samples;Min_cycle;Max_cycle;Signal;HPM_P1;HPM_P2
2022/06/18 00:01:39;;;;;;;1.85;0.73;;;;;;;;;;5035849;28;20144;-94
2022/06/18 00:04:08;;;;;;;1.67;1.05;;;;;;;;;;5036097;28;20076;-94
2022/06/18 00:06:56;;;;;;;2.85;1.00;;;;;;;;;;5036140;28;20083;-94
2022/06/18 00:09:27;;;;;;;4.82;0.93;;;;;;;;;;5037091;28;20069;-92
2022/06/18 00:14:43;;;;;;;1.30;0.70;;;;;;;;;;5053407;28;20124;-94
2022/06/18 00:17:14;;;;;;;0.95;0.80;;;;;;;;;;5035739;28;20139;-94
2022/06/18 00:19:42;;;;;;;2.53;1.15;;;;;;;;;;5035941;28;20053;-93
2022/06/18 00:22:12;;;;;;;2.28;1.10;;;;;;;;;;5035755;28;20087;-95
2022/06/18 00:24:39;;;;;;;2.05;1.05;;;;;;;;;;5036011;28;20049;-94
2022/06/18 00:27:09;;;;;;;4.20;1.00;;;;;;;;;;5035657;28;20163;-94
2022/06/18 00:29:36;;;;;;;0.90;0.90;;;;;;;;;;5035709;28;20049;-94
2022/06/18 00:32:03;;;;;;;2.38;1.10;;;;;;;;;;5035681;28;20085;-94
2022/06/18 00:34:30;;;;;;;0.80;0.80;;;;;;;;;;5035771;28;20056;-94
2022/06/18 00:36:58;;;;;;;1.35;1.00;;;;;;;;;;5035878;28;20080;-96
2022/06/18 00:39:25;;;;;;;2.47;1.10;;;;;;;;;;5035890;28;20580;-94
2022/06/18 00:41:53;;;;;;;2.78;1.00;;;;;;;;;;5035675;28;20055;-94
2022/06/18 00:44:26;;;;;;;2.13;1.20;;;;;;;;;;5035880;28;20088;-94
2022/06/18 00:47:14;;;;;;;0.95;0.88;;;;;;;;;;5036094;28;20049;-94
2022/06/18 00:49:48;;;;;;;2.47;1.25;;;;;;;;;;5038027;28;20045;-94
2022/06/18 00:52:21;;;;;;;1.38;1.00;;;;;;;;;;5035675;28;20075;-94
2022/06/18 00:55:04;;;;;;;2.83;1.00;;;;;;;;;;5035684;28;20175;-95
2022/06/18 00:57:38;;;;;;;1.25;1.17;;;;;;;;;;5036639;28;20119;-94
2022/06/18 01:00:13;;;;;;;1.15;1.05;;;;;;;;;;5039641;28;20132;-94
2022/06/18 01:02:42;;;;;;;3.60;0.82;;;;;;;;;;5035874;28;20131;-94
2022/06/18 01:05:17;;;;;;;3.67;1.17;;;;;;;;;;5035525;28;20049;-94
2022/06/18 01:07:45;;;;;;;1.85;1.10;;;;;;;;;;5035641;28;20519;-95
2022/06/18 01:10:26;;;;;;;2.40;1.10;;;;;;;;;;5036715;28;20045;-94
2022/06/18 01:13:05;;;;;;;8.18;1.13;;;;;;;;;;5039643;28;20088;-94
2022/06/18 01:15:35;;;;;;;1.27;1.00;;;;;;;;;;5039298;28;20547;-95
2022/06/18 01:18:04;;;;;;;1.08;1.00;;;;;;;;;;5039140;28;20048;-94
2022/06/18 01:20:32;;;;;;;1.02;0.95;;;;;;;;;;5039100;28;20099;-94
2022/06/18 01:23:08;;;;;;;5.13;1.00;;;;;;;;;;5039118;28;20135;-93
2022/06/18 01:25:36;;;;;;;3.00;1.05;;;;;;;;;;5038942;28;20076;-94
2022/06/18 01:28:03;;;;;;;1.48;1.00;;;;;;;;;;5038691;28;20127;-92
2022/06/18 01:30:32;;;;;;;1.30;1.20;;;;;;;;;;5038922;28;20136;-94
2022/06/18 01:33:00;;;;;;;1.50;1.10;;;;;;;;;;5038769;28;20140;-94
2022/06/18 01:35:28;;;;;;;1.33;1.10;;;;;;;;;;5038872;28;20065;-93
2022/06/18 01:37:56;;;;;;;1.10;1.05;;;;;;;;;;5038912;28;20465;-94
2022/06/18 01:40:31;;;;;;;2.30;1.27;;;;;;;;;;5040022;28;20596;-95
2022/06/18 01:42:59;;;;;;;1.88;1.33;;;;;;;;;;5038912;28;20048;-94
2022/06/18 01:45:28;;;;;;;2.15;1.33;;;;;;;;;;5038617;28;20507;-94
2022/06/18 01:48:07;;;;;;;1.15;1.10;;;;;;;;;;5038644;28;20132;-95
2022/06/18 01:50:40;;;;;;;1.92;1.00;;;;;;;;;;5038421;28;20072;-93
2022/06/18 01:53:14;;;;;;;1.67;1.30;;;;;;;;;;5038512;28;20083;-94
2022/06/18 01:55:47;;;;;;;1.92;1.13;;;;;;;;;;5038369;28;20079;-94
2022/06/18 01:58:26;;;;;;;1.63;1.27;;;;;;;;;;5038532;28;20044;-95
2022/06/18 02:00:56;;;;;;;2.22;1.33;;;;;;;;;;5037983;28;20144;-94
2022/06/18 02:03:23;;;;;;;1.27;1.20;;;;;;;;;;5037990;28;20493;-94
2022/06/18 02:05:51;;;;;;;1.02;1.02;;;;;;;;;;5038375;28;20076;-94
2022/06/18 02:08:19;;;;;;;1.10;0.93;;;;;;;;;;5037804;28;20129;-94
2022/06/18 02:10:50;;;;;;;1.25;1.08;;;;;;;;;;5038004;28;20049;-93
2022/06/18 02:13:18;;;;;;;1.35;1.30;;;;;;;;;;5038161;28;20136;-94
2022/06/18 02:15:46;;;;;;;3.60;1.38;;;;;;;;;;5040845;28;20489;-94
2022/06/18 02:18:15;;;;;;;1.63;1.20;;;;;;;;;;5041058;28;20053;-94
2022/06/18 02:20:53;;;;;;;3.45;1.40;;;;;;;;;;5038280;28;20088;-94
2022/06/18 02:23:21;;;;;;;1.90;1.33;;;;;;;;;;5037081;28;20083;-95
2022/06/18 02:25:48;;;;;;;1.67;0.95;;;;;;;;;;5037708;28;20131;-92
2022/06/18 02:28:24;;;;;;;1.30;1.20;;;;;;;;;;5037602;28;20132;-94
2022/06/18 02:30:52;;;;;;;0.95;0.95;;;;;;;;;;5037773;28;20117;-94
2022/06/18 02:33:40;;;;;;;2.42;1.17;;;;;;;;;;5037485;28;20159;-94
2022/06/18 02:36:15;;;;;;;2.65;1.13;;;;;;;;;;5037441;28;20501;-94
2022/06/18 02:38:43;;;;;;;1.02;1.00;;;;;;;;;;5037324;28;20132;-95
2022/06/18 02:41:11;;;;;;;2.38;1.55;;;;;;;;;;5037081;28;20065;-94
2022/06/18 02:43:39;;;;;;;1.10;1.10;;;;;;;;;;5037488;28;20052;-94
2022/06/18 02:46:07;;;;;;;2.53;1.10;;;;;;;;;;5037136;28;20063;-95
2022/06/18 02:48:36;;;;;;;1.23;1.15;;;;;;;;;;5037129;28;20044;-94
2022/06/18 02:51:04;;;;;;;2.25;1.20;;;;;;;;;;5037013;28;20136;-94
2022/06/18 02:53:32;;;;;;;1.73;1.48;;;;;;;;;;5037012;28;20081;-95
2022/06/18 02:56:02;;;;;;;1.33;1.15;;;;;;;;;;5037283;28;20060;-94
2022/06/18 02:58:31;;;;;;;1.42;1.33;;;;;;;;;;5037070;28;20052;-94
2022/06/18 03:01:04;;;;;;;3.78;1.63;;;;;;;;;;5036930;28;20088;-94
2022/06/18 03:03:33;;;;;;;2.72;1.50;;;;;;;;;;5036987;28;20080;-94
2022/06/18 03:06:01;;;;;;;2.13;1.35;;;;;;;;;;5037053;28;20049;-95
2022/06/18 03:08:29;;;;;;;1.88;1.50;;;;;;;;;;5036815;28;20141;-95
2022/06/18 03:13:42;;;;;;;1.45;1.35;;;;;;;;;;5054624;28;20136;-94
2022/06/18 03:16:10;;;;;;;1.45;1.40;;;;;;;;;;5036504;28;20057;-94
2022/06/18 03:18:39;;;;;;;2.63;1.17;;;;;;;;;;5037001;28;20051;-95
2022/06/18 03:21:18;;;;;;;1.42;1.35;;;;;;;;;;5037192;28;20132;-94
2022/06/18 03:23:45;;;;;;;3.28;1.45;;;;;;;;;;5036887;28;20057;-94
2022/06/18 03:26:13;;;;;;;2.13;1.50;;;;;;;;;;5036589;28;20051;-95
2022/06/18 03:28:40;;;;;;;2.10;1.40;;;;;;;;;;5036499;28;20070;-95
2022/06/18 03:31:07;;;;;;;1.38;1.27;;;;;;;;;;5037107;28;20135;-95
2022/06/18 03:33:35;;;;;;;1.40;1.30;;;;;;;;;;5040765;28;20048;-95
2022/06/18 03:36:02;;;;;;;1.40;1.30;;;;;;;;;;5037202;28;20139;-94
2022/06/18 03:38:29;;;;;;;1.60;1.50;;;;;;;;;;5037016;28;20486;-94
2022/06/18 03:40:57;;;;;;;2.78;1.60;;;;;;;;;;5036628;28;20131;-94
2022/06/18 03:43:25;;;;;;;1.40;1.33;;;;;;;;;;5036148;28;20117;-94
2022/06/18 03:45:54;;;;;;;1.83;1.33;;;;;;;;;;5036577;28;20079;-94
2022/06/18 03:48:26;;;;;;;2.83;1.63;;;;;;;;;;5036514;28;20111;-94
2022/06/18 03:50:53;;;;;;;1.40;1.30;;;;;;;;;;5036626;28;20045;-95
2022/06/18 03:53:21;;;;;;;1.98;1.50;;;;;;;;;;5035920;28;20149;-94
2022/06/18 03:55:48;;;;;;;1.70;1.50;;;;;;;;;;5035874;28;20087;-94
2022/06/18 03:58:16;;;;;;;1.85;1.45;;;;;;;;;;5036130;28;20140;-95
2022/06/18 04:00:43;;;;;;;6.95;1.70;;;;;;;;;;5035927;28;20525;-94
2022/06/18 04:03:10;;;;;;;2.35;1.95;;;;;;;;;;5036004;28;20076;-95
2022/06/18 04:05:39;;;;;;;1.80;1.70;;;;;;;;;;5035894;28;20431;-94
2022/06/18 04:08:06;;;;;;;2.10;1.77;;;;;;;;;;5035622;28;20152;-94
2022/06/18 04:10:33;;;;;;;1.80;1.70;;;;;;;;;;5035793;28;20549;-94
2022/06/18 04:13:00;;;;;;;4.32;1.67;;;;;;;;;;5035950;28;20053;-95
2022/06/18 04:15:28;;;;;;;2.97;1.35;;;;;;;;;;5035991;28;20099;-95
2022/06/18 04:17:55;;;;;;;1.77;1.65;;;;;;;;;;5035973;28;20461;-94
2022/06/18 04:20:27;;;;;;;1.88;1.40;;;;;;;;;;5036049;28;20059;-93
2022/06/18 04:22:54;;;;;;;2.50;1.70;;;;;;;;;;5035828;28;20136;-95
2022/06/18 04:25:22;;;;;;;1.40;1.27;;;;;;;;;;5035551;28;20132;-94
2022/06/18 04:27:49;;;;;;;3.13;1.83;;;;;;;;;;5035794;28;20075;-94
2022/06/18 04:30:18;;;;;;;3.63;1.90;;;;;;;;;;5035637;28;20362;-95
2022/06/18 04:32:45;;;;;;;7.28;1.90;;;;;;;;;;5035906;28;20167;-93
2022/06/18 04:35:13;;;;;;;3.95;1.50;;;;;;;;;;5035545;28;20064;-95
2022/06/18 04:37:43;;;;;;;2.92;1.70;;;;;;;;;;5035963;28;20049;-94
2022/06/18 04:40:15;;;;;;;1.42;1.23;;;;;;;;;;5035628;28;20079;-95
2022/06/18 04:43:06;;;;;;;5.75;1.38;;;;;;;;;;5038748;28;20379;-94
2022/06/18 04:45:34;;;;;;;2.00;1.35;;;;;;;;;;5035449;28;20076;-94
2022/06/18 04:48:01;;;;;;;2.65;1.52;;;;;;;;;;5039002;28;20137;-94
2022/06/18 04:50:33;;;;;;;1.58;1.48;;;;;;;;;;5042362;28;20068;-92
2022/06/18 04:53:00;;;;;;;4.63;1.70;;;;;;;;;;5041852;28;20068;-91
2022/06/18 04:55:27;;;;;;;1.70;1.38;;;;;;;;;;5039594;28;20481;-91
2022/06/18 04:57:55;;;;;;;1.73;1.23;;;;;;;;;;5039299;28;20128;-94
2022/06/18 05:00:22;;;;;;;1.27;1.20;;;;;;;;;;5039028;28;20433;-91
2022/06/18 05:02:49;;;;;;;1.10;0.90;;;;;;;;;;5039482;28;20057;-92
2022/06/18 05:05:26;;;;;;;1.42;1.33;;;;;;;;;;5039576;28;20144;-91
2022/06/18 05:07:54;;;;;;;1.38;1.10;;;;;;;;;;5039550;28;20045;-92
2022/06/18 05:10:21;;;;;;;1.85;1.10;;;;;;;;;;5044823;28;20077;-92
2022/06/18 05:12:49;;;;;;;3.60;1.23;;;;;;;;;;5039397;28;20132;-92
2022/06/18 05:15:16;;;;;;;1.48;1.25;;;;;;;;;;5039355;28;20128;-93
2022/06/18 05:17:44;;;;;;;2.67;1.17;;;;;;;;;;5039388;28;20136;-91
2022/06/18 05:20:13;;;;;;;3.63;1.13;;;;;;;;;;5038814;28;20052;-91
2022/06/18 05:22:41;;;;;;;1.15;0.90;;;;;;;;;;5038755;28;20515;-91
2022/06/18 05:25:08;;;;;;;1.40;1.35;;;;;;;;;;5038662;28;20091;-90
2022/06/18 05:27:36;;;;;;;1.65;1.17;;;;;;;;;;5038836;28;20508;-89
2022/06/18 05:30:04;;;;;;;1.38;1.38;;;;;;;;;;5038794;28;20136;-91
2022/06/18 05:32:31;;;;;;;1.75;1.65;;;;;;;;;;5039035;28;20060;-92
2022/06/18 05:34:58;;;;;;;2.75;1.70;;;;;;;;;;5038810;28;20131;-91
2022/06/18 05:37:27;;;;;;;1.60;1.50;;;;;;;;;;5039013;28;20064;-89
2022/06/18 05:39:54;;;;;;;3.20;1.60;;;;;;;;;;5038694;28;20083;-93
2022/06/18 05:42:21;;;;;;;4.05;1.50;;;;;;;;;;5038888;28;20410;-92
2022/06/18 05:44:49;;;;;;;0.70;0.70;;;;;;;;;;5038760;28;20087;-91
2022/06/18 05:47:19;;;;;;;0.73;0.57;;;;;;;;;;5038719;28;20084;-88
2022/06/18 05:49:47;;;;;;;1.30;0.50;;;;;;;;;;5038734;28;20417;-89
2022/06/18 05:52:14;;;;;;;0.82;0.63;;;;;;;;;;5038494;28;20045;-89
2022/06/18 05:54:42;;;;;;;0.80;0.40;;;;;;;;;;5038150;28;20156;-90
2022/06/18 05:57:09;;;;;;;0.60;0.55;;;;;;;;;;5038488;28;20055;-89
2022/06/18 05:59:36;;;;;;;1.27;0.98;;;;;;;;;;5037121;28;20140;-89
2022/06/18 06:02:03;;;;;;;1.20;0.60;;;;;;;;;;5034875;28;20049;-89
2022/06/18 06:04:30;;;;;;;2.03;0.40;;;;;;;;;;5034615;28;20049;-88
2022/06/18 06:06:58;;;;;;;1.88;0.70;;;;;;;;;;5036205;28;20140;-88
2022/06/18 06:12:11;;;;;;;1.88;0.50;;;;;;;;;;5035806;28;20144;-88
2022/06/18 06:14:39;;;;;;;1.00;0.47;;;;;;;;;;5034371;28;20140;-89
2022/06/18 06:17:11;;;;;;;1.75;0.60;;;;;;;;;;5034255;28;20056;-89
2022/06/18 06:19:38;;;;;;;0.65;0.50;;;;;;;;;;5034496;28;20046;-89
2022/06/18 06:22:05;;;;;;;2.00;0.50;;;;;;;;;;5034305;28;20073;-90
2022/06/18 06:24:32;;;;;;;0.95;0.43;;;;;;;;;;5032832;28;20076;-90
2022/06/18 06:27:00;;;;;;;2.67;0.60;;;;;;;;;;5034484;28;20466;-91
2022/06/18 06:29:27;;;;;;;1.13;0.60;;;;;;;;;;5034295;28;20140;-91
2022/06/18 06:31:54;;;;;;;3.53;0.70;;;;;;;;;;5034535;28;20080;-89
2022/06/18 06:34:21;;;;;;;0.70;0.50;;;;;;;;;;5034200;28;20076;-89
2022/06/18 06:36:48;;;;;;;3.22;0.65;;;;;;;;;;5034254;28;20077;-88
2022/06/18 06:39:16;;;;;;;1.50;0.40;;;;;;;;;;5034026;28;20136;-89
2022/06/18 06:41:44;;;;;;;4.15;0.65;;;;;;;;;;5034274;28;20544;-90
2022/06/18 06:44:11;;;;;;;1.90;0.43;;;;;;;;;;5034310;28;20077;-90
2022/06/18 06:46:39;;;;;;;1.23;0.77;;;;;;;;;;5034343;28;20087;-91
2022/06/18 06:49:06;;;;;;;3.92;0.80;;;;;;;;;;5033867;28;20069;-91
2022/06/18 06:51:35;;;;;;;1.58;0.77;;;;;;;;;;5034984;28;20041;-93
2022/06/18 06:54:06;;;;;;;4.85;0.47;;;;;;;;;;5036530;28;20167;-91
2022/06/18 06:59:22;;;;;;;0.65;0.40;;;;;;;;;;5035398;28;20068;-91
2022/06/18 07:01:52;;;;;;;0.90;0.50;;;;;;;;;;5034526;28;20149;-89
2022/06/18 07:04:20;;;;;;;1.90;0.60;;;;;;;;;;5035117;28;20070;-87
2022/06/18 07:06:47;;;;;;;0.35;0.35;;;;;;;;;;5034694;28;20046;-91
2022/06/18 07:09:15;;;;;;;5.93;0.73;;;;;;;;;;5034157;28;20076;-91
2022/06/18 07:11:43;;;;;;;1.05;0.70;;;;;;;;;;5034040;28;20050;-88
2022/06/18 07:14:10;;;;;;;2.45;0.65;;;;;;;;;;5035389;28;20088;-93
2022/06/18 07:16:47;;;;;;;1.23;0.60;;;;;;;;;;5034689;28;20073;-94
2022/06/18 07:19:17;;;;;;;0.82;0.60;;;;;;;;;;5034729;28;20402;-90
2022/06/18 07:21:44;;;;;;;5.47;0.80;;;;;;;;;;5035722;28;20072;-88
2022/06/18 07:24:11;;;;;;;1.70;0.50;;;;;;;;;;5035047;28;20458;-88
2022/06/18 07:26:39;;;;;;;3.30;1.25;;;;;;;;;;5038119;28;20128;-91
2022/06/18 07:29:06;;;;;;;2.05;0.60;;;;;;;;;;5035691;28;20084;-89
2022/06/18 07:31:34;;;;;;;1.98;0.60;;;;;;;;;;5035929;28;20140;-89
2022/06/18 07:34:01;;;;;;;1.02;0.60;;;;;;;;;;5034103;28;20049;-88
2022/06/18 07:36:30;;;;;;;3.33;0.40;;;;;;;;;;5033865;28;20049;-89
2022/06/18 07:38:58;;;;;;;5.85;0.55;;;;;;;;;;5033654;28;20670;-87
2022/06/18 07:41:30;;;;;;;6.18;0.68;;;;;;;;;;5033714;28;20121;-88
2022/06/18 07:43:58;;;;;;;3.83;0.50;;;;;;;;;;5034133;28;20057;-87
2022/06/18 07:46:26;;;;;;;2.35;0.60;;;;;;;;;;5033113;28;20058;-86
2022/06/18 07:48:54;;;;;;;3.08;0.90;;;;;;;;;;5033508;28;20486;-90
2022/06/18 07:51:21;;;;;;;3.63;0.65;;;;;;;;;;5032955;28;20076;-87
2022/06/18 07:53:48;;;;;;;46.00;4.80;;;;;;;;;;5033974;28;20076;-91
2022/06/18 07:56:16;;;;;;;3.63;1.05;;;;;;;;;;5033177;28;20159;-91
2022/06/18 07:58:43;;;;;;;1.08;0.40;;;;;;;;;;5034161;28;20164;-94
2022/06/18 08:01:10;;;;;;;13.15;1.40;;;;;;;;;;5035162;28;20137;-85
2022/06/18 08:03:38;;;;;;;6.93;0.93;;;;;;;;;;5033108;28;20064;-87
2022/06/18 08:06:07;;;;;;;3.70;0.75;;;;;;;;;;5032895;28;20049;-88
2022/06/18 08:08:34;;;;;;;4.60;0.82;;;;;;;;;;5034886;28;20479;-88
2022/06/18 08:11:05;;;;;;;3.15;0.50;;;;;;;;;;5033201;28;20049;-91
2022/06/18 08:13:32;;;;;;;3.05;0.43;;;;;;;;;;5033380;28;20050;-88
2022/06/18 08:15:59;;;;;;;2.63;0.50;;;;;;;;;;5033377;28;20095;-91
2022/06/18 08:18:26;;;;;;;2.08;0.60;;;;;;;;;;5033892;28;20118;-89
2022/06/18 08:20:57;;;;;;;3.85;0.55;;;;;;;;;;5033942;28;20046;-89
2022/06/18 08:23:24;;;;;;;8.00;1.33;;;;;;;;;;5035614;28;20104;-91
2022/06/18 08:25:51;;;;;;;4.53;0.80;;;;;;;;;;5033428;28;20524;-90
2022/06/18 08:28:18;;;;;;;1.23;0.60;;;;;;;;;;5034442;28;20152;-93
2022/06/18 08:30:46;;;;;;;3.33;0.70;;;;;;;;;;5032658;28;20075;-89
2022/06/18 08:33:13;;;;;;;4.47;0.90;;;;;;;;;;5033073;28;20077;-92
2022/06/18 08:35:40;;;;;;;5.07;0.80;;;;;;;;;;5032840;28;20111;-87
2022/06/18 08:38:09;;;;;;;5.97;1.08;;;;;;;;;;5032783;28;20115;-88
2022/06/18 08:40:45;;;;;;;0.85;0.57;;;;;;;;;;5033450;28;20450;-87
2022/06/18 08:43:31;;;;;;;1.10;0.63;;;;;;;;;;5034050;28;20136;-92
2022/06/18 08:46:22;;;;;;;4.22;1.33;;;;;;;;;;5037012;28;20069;-87
2022/06/18 08:48:57;;;;;;;1.65;0.50;;;;;;;;;;5033490;28;20529;-91
2022/06/18 08:51:46;;;;;;;2.38;0.68;;;;;;;;;;5033078;28;20045;-90
2022/06/18 08:54:31;;;;;;;2.67;0.50;;;;;;;;;;5032500;28;20049;-93
2022/06/18 08:57:05;;;;;;;2.17;0.70;;;;;;;;;;5032610;28;20446;-85
2022/06/18 08:59:37;;;;;;;3.63;0.80;;;;;;;;;;5034868;28;20558;-89
2022/06/18 09:02:10;;;;;;;3.50;1.13;;;;;;;;;;5032155;28;20509;-88
2022/06/18 09:04:57;;;;;;;8.80;1.27;;;;;;;;;;5032530;28;20052;-90
2022/06/18 09:07:48;;;;;;;7.43;0.93;;;;;;;;;;5034658;28;20042;-90
2022/06/18 09:10:32;;;;;;;1.23;0.43;;;;;;;;;;5033909;28;20582;-88
2022/06/18 09:13:05;;;;;;;4.18;0.80;;;;;;;;;;5032789;28;20049;-93
2022/06/18 09:15:41;;;;;;;9.27;0.90;;;;;;;;;;5033311;28;20060;-93
2022/06/18 09:18:16;;;;;;;19.63;3.80;;;;;;;;;;5033164;28;20160;-89
2022/06/18 09:20:52;;;;;;;5.28;0.80;;;;;;;;;;5032390;28;20081;-89
2022/06/18 09:23:28;;;;;;;2.97;0.85;;;;;;;;;;5032962;28;20116;-87
2022/06/18 09:25:56;;;;;;;7.07;1.50;;;;;;;;;;5032398;28;20136;-88
2022/06/18 09:28:26;;;;;;;4.97;0.90;;;;;;;;;;5033074;28;20144;-89
2022/06/18 09:30:54;;;;;;;4.10;0.80;;;;;;;;;;5032195;28;20052;-90
2022/06/18 09:33:26;;;;;;;3.33;1.15;;;;;;;;;;5034501;28;20148;-87
2022/06/18 09:36:01;;;;;;;5.75;1.25;;;;;;;;;;5036038;28;20490;-92
2022/06/18 09:38:31;;;;;;;4.15;1.05;;;;;;;;;;5036037;28;20049;-87
2022/06/18 09:41:04;;;;;;;3.17;1.02;;;;;;;;;;5035319;28;20053;-87
2022/06/18 09:43:42;;;;;;;6.63;1.05;;;;;;;;;;5035852;28;20493;-90
2022/06/18 09:46:29;;;;;;;13.05;4.03;;;;;;;;;;5034910;28;20053;-93
2022/06/18 09:48:57;;;;;;;4.63;1.02;;;;;;;;;;5034134;28;20054;-89
2022/06/18 09:51:30;;;;;;;2.60;0.90;;;;;;;;;;5035564;28;20069;-87
2022/06/18 09:54:01;;;;;;;6.90;1.50;;;;;;;;;;5035451;28;20053;-89
2022/06/18 09:56:31;;;;;;;17.55;2.00;;;;;;;;;;5035562;28;20144;-87
2022/06/18 09:59:05;;;;;;;1.88;0.90;;;;;;;;;;5034639;28;20084;-86
2022/06/18 10:01:38;;;;;;;3.30;1.00;;;;;;;;;;5034681;28;20136;-86
2022/06/18 10:06:55;;;;;;;2.83;1.10;;;;;;;;;;5039256;28;20065;-87
2022/06/18 10:10:04;;;;;;;3.45;0.95;;;;;;;;;;5035348;28;20061;-89
2022/06/18 10:12:33;;;;;;;3.55;1.13;;;;;;;;;;5031409;28;20163;-90
2022/06/18 10:15:01;;;;;;;6.50;1.20;;;;;;;;;;5034744;28;20140;-88
2022/06/18 10:17:32;;;;;;;5.88;1.13;;;;;;;;;;5034619;28;20459;-87
2022/06/18 10:20:08;;;;;;;5.75;1.10;;;;;;;;;;5034497;28;20132;-89
2022/06/18 10:22:42;;;;;;;1.85;1.00;;;;;;;;;;5034828;28;20053;-91
2022/06/18 10:25:18;;;;;;;5.95;1.05;;;;;;;;;;5034765;28;20148;-89
2022/06/18 10:27:45;;;;;;;8.23;1.42;;;;;;;;;;5034583;28;20136;-88
2022/06/18 10:30:16;;;;;;;4.32;1.67;;;;;;;;;;5034293;28;20075;-88
2022/06/18 10:33:22;;;;;;;3.47;0.98;;;;;;;;;;5034581;28;20467;-86
2022/06/18 10:36:16;;;;;;;9.43;1.92;;;;;;;;;;4939431;29;20570;-89
2022/06/18 10:39:00;;;;;;;2.67;1.02;;;;;;;;;;4937296;29;20106;-87
2022/06/18 10:41:34;;;;;;;5.03;1.15;;;;;;;;;;5013523;28;20061;-86
2022/06/18 10:44:07;;;;;;;7.25;1.38;;;;;;;;;;5033361;28;20133;-92
2022/06/18 10:46:40;;;;;;;5.78;1.70;;;;;;;;;;5033799;28;20561;-89
2022/06/18 10:49:07;;;;;;;11.48;2.42;;;;;;;;;;5033770;28;20049;-89
2022/06/18 10:51:41;;;;;;;8.00;2.20;;;;;;;;;;5034603;28;20065;-88
2022/06/18 10:54:09;;;;;;;12.57;2.28;;;;;;;;;;5034515;28;20076;-95
2022/06/18 10:57:06;;;;;;;7.72;2.25;;;;;;;;;;5034036;28;20137;-87
2022/06/18 10:59:37;;;;;;;11.63;2.45;;;;;;;;;;5013792;28;20140;-87
2022/06/18 11:02:12;;;;;;;13.07;2.20;;;;;;;;;;5033655;28;20092;-86
2022/06/18 11:04:52;;;;;;;10.57;2.53;;;;;;;;;;5033733;28;20452;-87
2022/06/18 11:07:22;;;;;;;8.57;2.58;;;;;;;;;;5034807;28;20059;-87
2022/06/18 11:09:50;;;;;;;10.02;2.00;;;;;;;;;;5033323;28;20053;-89
2022/06/18 11:12:22;;;;;;;8.82;1.75;;;;;;;;;;5034630;28;20487;-89
2022/06/18 11:14:49;;;;;;;11.65;2.88;;;;;;;;;;5033237;28;20045;-87
2022/06/18 11:17:27;;;;;;;13.38;2.60;;;;;;;;;;5033965;28;20056;-87
2022/06/18 11:19:54;;;;;;;9.05;2.55;;;;;;;;;;5033296;28;20051;-88
2022/06/18 11:22:24;;;;;;;8.27;1.92;;;;;;;;;;5035085;28;20061;-87
2022/06/18 11:24:56;;;;;;;7.88;1.85;;;;;;;;;;5035584;28;20558;-86
2022/06/18 11:27:24;;;;;;;12.68;2.25;;;;;;;;;;5033328;28;20063;-86
2022/06/18 11:29:52;;;;;;;14.65;2.38;;;;;;;;;;5033725;28;20136;-90
2022/06/18 11:32:25;;;;;;;10.02;2.38;;;;;;;;;;5034836;28;20129;-88
2022/06/18 11:35:08;;;;;;;14.65;2.42;;;;;;;;;;5033736;28;20072;-95
2022/06/18 11:37:36;;;;;;;14.60;3.00;;;;;;;;;;5033446;28;20471;-87
2022/06/18 11:40:17;;;;;;;17.00;2.70;;;;;;;;;;5033845;28;20103;-91
2022/06/18 11:42:47;;;;;;;15.05;3.10;;;;;;;;;;5035226;28;20049;-91
2022/06/18 11:45:26;;;;;;;16.55;2.78;;;;;;;;;;5033692;28;20096;-92
2022/06/18 11:48:04;;;;;;;15.70;3.08;;;;;;;;;;5033377;28;20123;-89
2022/06/18 11:50:37;;;;;;;10.45;2.53;;;;;;;;;;5033285;28;20156;-89
2022/06/18 11:53:24;;;;;;;10.10;2.30;;;;;;;;;;5034091;28;20073;-88
2022/06/18 11:55:54;;;;;;;12.30;2.63;;;;;;;;;;5032246;28;20149;-88
2022/06/18 11:58:33;;;;;;;13.10;2.85;;;;;;;;;;5033259;28;20049;-91
2022/06/18 12:01:09;;;;;;;13.98;2.67;;;;;;;;;;5032503;28;20513;-88
2022/06/18 12:03:42;;;;;;;9.65;2.40;;;;;;;;;;5032807;28;20057;-90
2022/06/18 12:06:14;;;;;;;9.32;2.20;;;;;;;;;;5032734;28;20049;-89
2022/06/18 12:09:01;;;;;;;20.13;3.08;;;;;;;;;;5033407;28;20049;-89
2022/06/18 12:11:45;;;;;;;12.35;2.55;;;;;;;;;;5033104;28;20057;-90
2022/06/18 12:14:16;;;;;;;12.70;2.58;;;;;;;;;;5032737;28;20386;-87
2022/06/18 12:16:47;;;;;;;13.40;2.65;;;;;;;;;;5032641;28;20068;-89
2022/06/18 12:19:20;;;;;;;10.45;2.35;;;;;;;;;;5032757;28;20129;-91
2022/06/18 12:21:47;;;;;;;;;;;;;;;;;;5033426;28;20060;-92
2022/06/18 12:24:23;;;;;;;11.85;2.30;;;;;;;;;;5032713;28;19921;-92
2022/06/18 12:26:57;;;;;;;12.15;2.17;;;;;;;;;;5032945;28;20187;-90
2022/06/18 12:29:24;;;;;;;;;;;;;;;;;;5034049;28;20161;-88
2022/06/18 12:31:59;;;;;;;16.02;2.88;;;;;;;;;;5032667;28;19925;-87
2022/06/18 12:34:45;;;;;;;10.90;2.70;;;;;;;;;;5032774;28;20041;-89
2022/06/18 12:37:30;;;;;;;10.90;2.50;;;;;;;;;;5032987;28;20099;-88
2022/06/18 12:40:16;;;;;;;14.45;2.72;;;;;;;;;;5034998;28;20041;-90
2022/06/18 12:42:55;;;;;;;21.83;3.10;;;;;;;;;;5040780;28;20068;-86
2022/06/18 12:45:26;;;;;;;14.50;2.83;;;;;;;;;;5044143;28;20053;-89
2022/06/18 12:47:59;;;;;;;9.43;2.30;;;;;;;;;;5048936;28;20056;-93
2022/06/18 12:50:46;;;;;;;14.82;2.92;;;;;;;;;;5040920;28;20111;-92
2022/06/18 12:53:32;;;;;;;10.95;2.33;;;;;;;;;;5033005;28;20469;-90
2022/06/18 12:56:18;;;;;;;10.05;1.95;;;;;;;;;;5032920;28;20565;-93
2022/06/18 12:58:53;;;;;;;15.00;2.60;;;;;;;;;;5034985;28;20145;-88
2022/06/18 13:01:24;;;;;;;10.88;2.70;;;;;;;;;;5034864;28;20145;-88
2022/06/18 13:04:10;;;;;;;9.63;2.55;;;;;;;;;;5032765;28;20046;-89
2022/06/18 13:06:58;;;;;;;9.55;2.40;;;;;;;;;;5032883;28;20053;-88
2022/06/18 13:09:35;;;;;;;21.98;3.10;;;;;;;;;;5036168;28;20075;-88
2022/06/18 13:12:21;;;;;;;18.85;2.90;;;;;;;;;;5036170;28;20447;-91
2022/06/18 13:14:57;;;;;;;8.80;2.10;;;;;;;;;;5035585;28;20049;-89
2022/06/18 13:17:24;;;;;;;16.13;2.40;;;;;;;;;;5037944;28;20072;-89
2022/06/18 13:19:58;;;;;;;15.02;3.17;;;;;;;;;;5036598;28;20149;-88
2022/06/18 13:22:26;;;;;;;10.73;2.15;;;;;;;;;;5035837;28;20049;-90
2022/06/18 13:28:16;;;;;;;12.93;2.95;;;;;;;;;;5037103;28;20152;-91
2022/06/18 13:31:08;;;;;;;11.18;2.45;;;;;;;;;;5036175;28;20050;-89
2022/06/18 13:33:40;;;;;;;14.52;2.70;;;;;;;;;;5036457;28;20132;-88
2022/06/18 13:36:08;;;;;;;14.70;2.70;;;;;;;;;;5035780;28;20046;-88
2022/06/18 13:38:56;;;;;;;11.60;2.63;;;;;;;;;;5035593;28;20076;-89
2022/06/18 13:41:31;;;;;;;13.00;2.42;;;;;;;;;;5036723;28;20041;-89
2022/06/18 13:44:01;;;;;;;12.48;2.25;;;;;;;;;;5035624;28;20053;-88
2022/06/18 13:46:37;;;;;;;10.45;2.45;;;;;;;;;;5035927;28;20477;-89
2022/06/18 13:49:05;;;;;;;11.30;2.03;;;;;;;;;;5035458;28;20049;-89
2022/06/18 13:51:33;;;;;;;11.10;2.50;;;;;;;;;;5035902;28;20057;-90
2022/06/18 13:54:05;;;;;;;12.50;2.75;;;;;;;;;;5035192;28;20405;-88
2022/06/18 13:56:33;;;;;;;10.25;2.50;;;;;;;;;;5035285;28;20075;-87
2022/06/18 13:59:01;;;;;;;12.18;2.70;;;;;;;;;;5035570;28;20041;-92
2022/06/18 14:01:30;;;;;;;11.27;2.50;;;;;;;;;;5036093;28;20073;-89
2022/06/18 14:04:01;;;;;;;14.90;2.75;;;;;;;;;;5037106;28;20049;-91
2022/06/18 14:06:29;;;;;;;8.43;2.35;;;;;;;;;;5037466;28;20049;-90
2022/06/18 14:08:58;;;;;;;9.60;2.58;;;;;;;;;;5037195;28;20404;-89
2022/06/18 14:11:39;;;;;;;11.90;3.00;;;;;;;;;;5035232;28;20069;-89
2022/06/18 14:14:09;;;;;;;11.55;2.58;;;;;;;;;;5035819;28;20132;-89
2022/06/18 14:16:37;;;;;;;10.82;2.50;;;;;;;;;;5035424;28;20117;-92
2022/06/18 14:19:14;;;;;;;17.75;2.92;;;;;;;;;;5038283;28;20055;-96
2022/06/18 14:21:42;;;;;;;10.10;2.35;;;;;;;;;;5037283;28;20073;-89
2022/06/18 14:24:09;;;;;;;12.75;2.55;;;;;;;;;;5037761;28;20068;-90
2022/06/18 14:26:49;;;;;;;9.00;2.08;;;;;;;;;;5045616;28;20050;-92
2022/06/18 14:29:17;;;;;;;12.57;2.88;;;;;;;;;;5045025;28;20041;-89
2022/06/18 14:31:54;;;;;;;10.75;2.40;;;;;;;;;;5036219;28;20069;-93
2022/06/18 14:34:27;;;;;;;18.63;3.03;;;;;;;;;;5035010;28;20532;-88
2022/06/18 14:37:01;;;;;;;12.27;2.63;;;;;;;;;;5038062;28;20045;-90
2022/06/18 14:39:31;;;;;;;16.75;3.50;;;;;;;;;;5035721;28;20055;-90
2022/06/18 14:42:13;;;;;;;14.40;2.90;;;;;;;;;;5034813;28;20107;-89
2022/06/18 14:44:50;;;;;;;14.25;2.97;;;;;;;;;;5034613;28;20486;-91
2022/06/18 14:47:24;;;;;;;14.35;2.45;;;;;;;;;;5034475;28;20060;-90
2022/06/18 14:49:54;;;;;;;12.95;2.58;;;;;;;;;;5034749;28;20077;-88
2022/06/18 14:52:29;;;;;;;10.90;3.13;;;;;;;;;;5034364;28;20049;-91
2022/06/18 14:55:15;;;;;;;14.88;2.85;;;;;;;;;;5033750;28;20049;-92
2022/06/18 14:58:02;;;;;;;15.60;2.83;;;;;;;;;;5034188;28;20132;-93
2022/06/18 15:00:36;;;;;;;17.05;2.63;;;;;;;;;;5034060;28;20057;-91
2022/06/18 15:03:22;;;;;;;11.73;2.45;;;;;;;;;;5033537;28;20049;-89
2022/06/18 15:06:01;;;;;;;19.48;2.67;;;;;;;;;;5035185;28;20053;-94
2022/06/18 15:08:29;;;;;;;16.17;2.55;;;;;;;;;;5034016;28;20128;-89
2022/06/18 15:11:00;;;;;;;10.27;2.40;;;;;;;;;;5034020;28;20084;-91
2022/06/18 15:13:27;;;;;;;16.00;3.05;;;;;;;;;;5033591;28;20072;-95
2022/06/18 15:16:06;;;;;;;10.98;2.22;;;;;;;;;;5033157;28;20124;-89
2022/06/18 15:18:55;;;;;;;12.00;2.10;;;;;;;;;;5034419;28;20068;-91
2022/06/18 15:24:06;;;;;;;12.57;2.28;;;;;;;;;;5035330;28;20045;-94
2022/06/18 15:26:42;;;;;;;13.77;2.47;;;;;;;;;;5033945;28;20121;-90
2022/06/18 15:29:17;;;;;;;21.65;2.55;;;;;;;;;;5034588;28;20049;-95